Time;durP1;ratioP1;P1;durP2;ratioP2;P2;SDS_P1;SDS_P2;PMS_P1;PMS_P2;Temp;Humidity;BMP_temperature;BMP_pressure;BME280_temperature;BME280_humidity;BME280_pressure;Samples;Min_cycle;Max_cycle;Signal;HPM_P1;HPM_P2
2023/10/11 00:01:35;;;;;;;2.17;1.20;;;15.40;99.90;;;;;;5115597;28;20424;-51
2023/10/11 00:04:03;;;;;;;4.80;1.40;;;15.40;99.90;;;;;;5115236;28;20804;-50
2023/10/11 00:06:33;;;;;;;5.35;1.30;;;15.40;99.90;;;;;;5115060;28;20463;-50
2023/10/11 00:09:04;;;;;;;3.92;1.40;;;15.30;99.90;;;;;;5115391;28;20431;-52
2023/10/11 00:11:31;;;;;;;2.53;1.10;;;15.30;99.90;;;;;;5115463;28;20474;-52
2023/10/11 00:13:58;;;;;;;4.10;1.20;;;15.30;99.90;;;;;;5115492;28;20832;-50
2023/10/11 00:16:25;;;;;;;3.65;1.20;;;15.30;99.90;;;;;;5114368;28;20423;-48
2023/10/11 00:18:55;;;;;;;4.37;1.00;;;15.20;99.90;;;;;;5114945;28;20416;-50
2023/10/11 00:21:35;;;;;;;4.40;1.20;;;15.20;99.90;;;;;;5115104;28;20424;-53
2023/10/11 00:24:07;;;;;;;4.15;1.10;;;15.20;99.90;;;;;;5113811;28;20501;-54
2023/10/11 00:26:34;;;;;;;3.83;1.30;;;15.20;99.90;;;;;;5114618;28;20540;-50
2023/10/11 00:29:02;;;;;;;2.67;1.00;;;15.20;99.90;;;;;;5115215;28;20412;-49
2023/10/11 00:31:31;;;;;;;2.50;1.10;;;15.20;99.90;;;;;;5115151;28;20850;-50
2023/10/11 00:34:03;;;;;;;3.63;1.40;;;15.20;99.90;;;;;;5114907;28;20863;-49
2023/10/11 00:36:31;;;;;;;3.22;1.10;;;15.20;99.90;;;;;;5114932;28;20511;-48
2023/10/11 00:38:58;;;;;;;3.72;0.98;;;15.20;1.00;;;;;;5114761;28;20428;-49
2023/10/11 00:41:30;;;;;;;3.28;1.00;;;15.20;1.00;;;;;;5114652;28;20697;-54
2023/10/11 00:43:58;;;;;;;2.95;1.20;;;15.20;25.50;;;;;;5115153;28;20439;-52
2023/10/11 00:46:27;;;;;;;3.30;1.10;;;15.20;1.00;;;;;;5115080;28;20435;-51
2023/10/11 00:49:02;;;;;;;3.50;1.10;;;15.20;1.00;;;;;;5118224;28;20424;-55
2023/10/11 00:51:31;;;;;;;4.70;1.10;;;15.20;1.00;;;;;;5118007;28;20424;-52
2023/10/11 00:53:59;;;;;;;2.90;1.10;;;15.20;1.00;;;;;;5119079;28;20728;-47
2023/10/11 00:56:31;;;;;;;4.57;1.10;;;15.20;97.50;;;;;;5119081;28;20419;-50
2023/10/11 00:58:59;;;;;;;3.30;1.00;;;15.20;99.90;;;;;;5119149;28;20488;-48
2023/10/11 01:01:26;;;;;;;3.20;1.05;;;15.10;99.90;;;;;;5119008;28;20839;-51
2023/10/11 01:03:54;;;;;;;3.80;1.00;;;15.10;1.00;;;;;;5118614;28;20419;-49
2023/10/11 01:06:25;;;;;;;2.58;1.13;;;15.10;1.00;;;;;;5118302;28;20463;-52
2023/10/11 01:08:52;;;;;;;2.88;1.00;;;15.00;99.90;;;;;;5118542;28;20424;-51
2023/10/11 01:11:20;;;;;;;2.40;1.10;;;15.00;99.90;;;;;;5117047;28;20858;-50
2023/10/11 01:13:51;;;;;;;2.90;1.10;;;15.00;12.30;;;;;;5117451;28;20412;-49
2023/10/11 01:16:24;;;;;;;2.80;0.93;;;15.00;1.00;;;;;;5117530;28;20528;-51
2023/10/11 01:18:51;;;;;;;5.13;0.98;;;14.90;89.40;;;;;;5118779;28;20781;-49
2023/10/11 01:21:20;;;;;;;4.07;1.10;;;14.90;29.30;;;;;;5117584;28;20530;-53
2023/10/11 01:23:48;;;;;;;3.25;1.50;;;14.90;99.90;;;;;;5117854;28;20424;-50
2023/10/11 01:26:15;;;;;;;2.75;1.13;;;14.90;99.90;;;;;;5118594;28;20424;-52
2023/10/11 01:28:45;;;;;;;2.40;0.90;;;14.90;1.00;;;;;;5118553;28;20751;-51
2023/10/11 01:31:16;;;;;;;5.30;1.20;;;14.90;1.00;;;;;;5117932;28;20512;-50
2023/10/11 01:33:46;;;;;;;6.47;1.00;;;14.90;1.00;;;;;;5118091;28;20431;-50
2023/10/11 01:36:15;;;;;;;2.80;1.10;;;14.90;1.00;;;;;;5118227;28;20886;-48
2023/10/11 01:38:46;;;;;;;4.72;1.20;;;14.90;1.00;;;;;;5118433;28;20585;-52
2023/10/11 01:41:16;;;;;;;4.27;1.30;;;14.90;1.00;;;;;;5118422;28;20454;-50
2023/10/11 01:43:45;;;;;;;3.90;1.10;;;14.90;1.00;;;;;;5118531;28;20427;-51
2023/10/11 01:46:17;;;;;;;3.53;1.20;;;14.90;1.00;;;;;;5118161;28;20451;-52
2023/10/11 01:48:45;;;;;;;3.28;1.20;;;14.80;1.00;;;;;;5117928;28;20445;-51
2023/10/11 01:51:15;;;;;;;3.20;1.20;;;14.80;3.60;;;;;;5117625;28;20424;-50
2023/10/11 01:53:44;;;;;;;2.85;1.10;;;14.80;87.10;;;;;;5117600;28;21544;-51
2023/10/11 01:56:13;;;;;;;2.90;0.90;;;14.80;6.10;;;;;;5117952;28;20412;-52
2023/10/11 01:58:42;;;;;;;4.82;1.30;;;14.80;1.00;;;;;;5117790;28;20447;-52
2023/10/11 02:01:21;;;;;;;2.60;1.10;;;14.80;99.90;;;;;;5116296;28;20424;-52
2023/10/11 02:03:51;;;;;;;3.10;1.00;;;14.70;99.90;;;;;;5117876;28;20459;-51
2023/10/11 02:06:19;;;;;;;4.10;1.20;;;14.70;99.90;;;;;;5117991;28;20835;-50
2023/10/11 02:08:48;;;;;;;5.10;1.00;;;14.70;99.90;;;;;;5117674;28;20420;-51
2023/10/11 02:11:15;;;;;;;3.50;1.00;;;14.70;99.90;;;;;;5117541;28;20419;-53
2023/10/11 02:13:42;;;;;;;2.80;1.40;;;14.70;99.90;;;;;;5117252;28;20424;-50
2023/10/11 02:16:12;;;;;;;4.05;1.10;;;14.70;99.90;;;;;;5117341;28;20455;-52
2023/10/11 02:18:39;;;;;;;2.88;0.93;;;14.70;99.90;;;;;;5117617;28;20424;-53
2023/10/11 02:21:06;;;;;;;3.10;1.10;;;14.70;99.90;;;;;;5117645;28;20728;-51
2023/10/11 02:23:37;;;;;;;5.45;1.20;;;14.70;99.90;;;;;;5116986;28;20461;-53
2023/10/11 02:26:09;;;;;;;3.63;1.10;;;14.70;99.90;;;;;;5116715;27;20458;-52
2023/10/11 02:28:38;;;;;;;3.60;1.00;;;14.70;99.90;;;;;;5117470;28;20865;-51
2023/10/11 02:31:06;;;;;;;4.43;1.10;;;14.60;99.90;;;;;;5117535;28;20782;-51
2023/10/11 02:33:33;;;;;;;2.57;1.00;;;14.60;99.90;;;;;;5116822;28;20427;-52
2023/10/11 02:36:08;;;;;;;3.78;0.90;;;14.60;99.90;;;;;;5116558;28;20840;-53
2023/10/11 02:38:39;;;;;;;2.20;0.90;;;14.60;99.90;;;;;;5116917;28;20416;-55
2023/10/11 02:41:07;;;;;;;2.70;0.93;;;14.60;99.90;;;;;;5116871;28;20422;-52
2023/10/11 02:43:47;;;;;;;3.97;0.90;;;14.60;77.40;;;;;;5116957;28;20423;-51
2023/10/11 02:46:15;;;;;;;4.50;1.00;;;14.60;57.90;;;;;;5116921;28;20428;-53
2023/10/11 02:48:45;;;;;;;4.30;1.00;;;14.70;1.00;;;;;;5117203;28;20812;-52
2023/10/11 02:51:16;;;;;;;3.60;1.00;;;14.80;1.00;;;;;;5117334;28;20806;-52
2023/10/11 02:53:44;;;;;;;2.58;0.80;;;14.80;99.90;;;;;;5116561;28;20432;-49
2023/10/11 02:56:15;;;;;;;2.67;0.88;;;14.80;99.90;;;;;;5116783;28;20876;-55
2023/10/11 02:58:42;;;;;;;2.10;0.90;;;14.80;99.90;;;;;;5117222;28;20430;-49
2023/10/11 03:01:14;;;;;;;3.40;1.00;;;14.70;1.00;;;;;;5116689;28;20904;-50
2023/10/11 03:03:42;;;;;;;2.28;1.08;;;14.60;1.00;;;;;;5116336;28;20432;-48
2023/10/11 03:06:09;;;;;;;3.20;0.90;;;14.60;1.00;;;;;;5116038;28;20428;-51
2023/10/11 03:08:37;;;;;;;2.80;0.90;;;14.60;99.90;;;;;;5116544;28;20851;-49
2023/10/11 03:11:05;;;;;;;2.85;1.00;;;14.50;99.90;;;;;;5116602;28;20513;-53
2023/10/11 03:13:41;;;;;;;3.60;0.90;;;14.50;99.90;;;;;;5116719;28;20460;-50
2023/10/11 03:16:13;;;;;;;2.65;1.00;;;14.50;99.90;;;;;;5115985;28;20523;-50
2023/10/11 03:18:41;;;;;;;2.20;1.00;;;14.50;99.90;;;;;;5115922;28;20414;-51
2023/10/11 03:21:17;;;;;;;2.88;1.00;;;14.40;99.90;;;;;;5116030;28;20803;-54
2023/10/11 03:23:47;;;;;;;3.25;0.90;;;14.40;99.90;;;;;;5115145;28;20854;-52
2023/10/11 03:26:22;;;;;;;2.38;1.00;;;14.40;99.90;;;;;;5115279;28;20424;-52
2023/10/11 03:28:57;;;;;;;2.35;1.00;;;14.50;99.90;;;;;;5116129;28;20408;-54
2023/10/11 03:31:27;;;;;;;2.42;0.90;;;14.50;99.90;;;;;;5115771;28;20719;-51
2023/10/11 03:33:55;;;;;;;2.42;1.00;;;14.50;99.90;;;;;;5116289;28;20423;-54
2023/10/11 03:36:28;;;;;;;4.10;0.90;;;14.50;99.90;;;;;;5115704;28;20420;-50
2023/10/11 03:38:57;;;;;;;2.22;1.00;;;14.50;99.90;;;;;;5115756;28;20428;-49
2023/10/11 03:41:29;;;;;;;3.53;0.90;;;14.40;99.90;;;;;;5115909;28;20496;-52
2023/10/11 03:44:09;;;;;;;4.90;1.10;;;14.40;99.90;;;;;;5115602;28;20890;-50
2023/10/11 03:46:36;;;;;;;2.50;1.00;;;14.40;99.90;;;;;;5115478;28;20741;-50
2023/10/11 03:49:14;;;;;;;3.65;0.98;;;14.40;99.90;;;;;;5116170;28;20772;-52
2023/10/11 03:51:43;;;;;;;3.60;1.00;;;14.50;99.90;;;;;;5115029;28;20447;-50
2023/10/11 03:54:19;;;;;;;2.20;1.00;;;14.40;99.90;;;;;;5114548;28;20846;-47
2023/10/11 03:56:52;;;;;;;2.53;0.80;;;14.50;99.90;;;;;;5113946;28;20826;-53
2023/10/11 03:59:24;;;;;;;2.70;0.82;;;14.50;99.90;;;;;;5113885;28;20423;-51
2023/10/11 04:01:51;;;;;;;3.97;1.20;;;14.50;99.90;;;;;;5113358;28;20416;-52
2023/10/11 04:04:20;;;;;;;2.63;1.00;;;14.60;81.40;;;;;;5113422;28;20447;-51
2023/10/11 04:06:51;;;;;;;2.92;0.77;;;14.60;1.00;;;;;;5112264;28;20428;-49
2023/10/11 04:09:32;;;;;;;4.35;0.80;;;14.60;1.00;;;;;;5115345;28;20544;-52
2023/10/11 04:12:00;;;;;;;3.65;0.90;;;14.70;1.00;;;;;;5115156;28;20726;-53
2023/10/11 04:14:43;;;;;;;2.20;0.80;;;14.70;1.00;;;;;;5113841;28;20416;-52
2023/10/11 04:17:14;;;;;;;1.80;0.90;;;14.80;99.90;;;;;;5113847;28;20724;-50
2023/10/11 04:19:43;;;;;;;3.25;0.70;;;14.80;99.90;;;;;;5115414;28;20412;-51
2023/10/11 04:22:23;;;;;;;2.60;0.82;;;14.80;87.80;;;;;;5113848;28;20515;-53
2023/10/11 04:24:52;;;;;;;2.00;0.90;;;14.80;9.30;;;;;;5115060;28;20424;-51
2023/10/11 04:27:47;;;;;;;3.20;0.85;;;14.90;4.90;;;;;;5114935;28;20440;-50
2023/10/11 04:30:23;;;;;;;1.57;0.80;;;14.90;1.00;;;;;;5115294;28;20427;-53
2023/10/11 04:32:56;;;;;;;2.17;0.83;;;15.00;99.90;;;;;;5115279;28;20843;-49
2023/10/11 04:35:25;;;;;;;2.75;0.85;;;15.00;1.00;;;;;;5114855;28;20416;-48
2023/10/11 04:38:02;;;;;;;3.80;0.80;;;15.10;1.00;;;;;;5115262;28;20416;-52
2023/10/11 04:40:51;;;;;;;1.70;0.80;;;15.10;1.00;;;;;;5114887;28;20446;-48
2023/10/11 04:43:23;;;;;;;2.03;0.90;;;15.20;99.90;;;;;;5114391;28;20431;-50
2023/10/11 04:45:55;;;;;;;3.40;0.80;;;15.30;50.70;;;;;;5113220;28;20416;-50
2023/10/11 04:48:30;;;;;;;3.60;0.90;;;15.30;1.00;;;;;;5112782;28;20637;-52
2023/10/11 04:51:07;;;;;;;3.23;1.00;;;15.30;1.00;;;;;;5114895;28;20428;-48
2023/10/11 04:53:46;;;;;;;4.80;1.00;;;15.20;1.00;;;;;;5113716;28;20430;-51
2023/10/11 04:58:59;;;;;;;1.80;0.90;;;15.10;99.90;;;;;;5113442;28;20773;-53
2023/10/11 05:01:40;;;;;;;2.50;0.90;;;15.00;1.00;;;;;;5114657;28;20455;-50
2023/10/11 05:04:12;;;;;;;1.60;0.80;;;14.90;1.00;;;;;;5113752;28;20424;-51
2023/10/11 05:06:41;;;;;;;4.28;0.90;;;14.90;99.90;;;;;;5112742;28;20685;-49
2023/10/11 05:09:13;;;;;;;2.42;0.90;;;14.90;1.00;;;;;;5113645;28;20482;-51
2023/10/11 05:11:43;;;;;;;2.50;0.80;;;14.90;1.00;;;;;;5113975;28;20425;-48
2023/10/11 05:14:30;;;;;;;2.42;1.00;;;14.90;1.00;;;;;;5111876;28;20427;-51
2023/10/11 05:17:16;;;;;;;3.00;0.90;;;14.90;1.00;;;;;;5113414;28;20769;-51
2023/10/11 05:19:45;;;;;;;4.70;1.10;;;14.80;1.00;;;;;;5113386;28;20794;-49
2023/10/11 05:22:16;;;;;;;1.67;0.90;;;14.70;99.90;;;;;;5113988;28;20763;-53
2023/10/11 05:25:12;;;;;;;1.83;0.85;;;14.80;1.00;;;;;;5112450;28;20428;-52
2023/10/11 05:27:47;;;;;;;2.90;0.90;;;14.80;99.90;;;;;;5113559;28;20577;-52
2023/10/11 05:30:28;;;;;;;2.45;0.90;;;15.00;1.00;;;;;;5112099;28;20431;-51
2023/10/11 05:33:09;;;;;;;2.35;1.00;;;15.00;1.00;;;;;;5113790;28;20424;-49
2023/10/11 05:36:14;;;;;;;5.13;1.10;;;15.20;99.90;;;;;;5113435;28;20443;-51
2023/10/11 05:52:25;;;;;;;3.05;0.90;;;15.30;1.00;;;;;;5114235;28;20501;-52
2023/10/11 05:54:54;;;;;;;2.80;0.98;;;15.30;1.00;;;;;;5115370;28;20511;-52
2023/10/11 05:57:23;;;;;;;5.07;1.00;;;15.30;99.90;;;;;;5115590;28;20481;-49
2023/10/11 05:59:50;;;;;;;3.17;1.00;;;15.20;1.00;;;;;;5114906;28;20416;-51
2023/10/11 06:02:20;;;;;;;3.88;1.00;;;15.20;1.00;;;;;;5114916;28;20412;-53
2023/10/11 06:04:48;;;;;;;4.50;1.10;;;15.30;1.00;;;;;;5111977;28;20676;-47
2023/10/11 06:07:19;;;;;;;2.80;1.10;;;15.30;99.90;;;;;;5112570;27;20428;-52
2023/10/11 06:09:52;;;;;;;3.10;1.20;;;15.40;1.00;;;;;;5092860;28;20429;-50
2023/10/11 06:12:26;;;;;;;1.83;0.90;;;15.30;1.00;;;;;;5098783;28;20436;-51
2023/10/11 06:14:54;;;;;;;1.53;1.00;;;15.30;99.90;;;;;;5113633;28;20494;-49
2023/10/11 06:17:22;;;;;;;3.42;1.08;;;15.40;1.00;;;;;;5111635;27;20436;-50
2023/10/11 06:19:55;;;;;;;2.55;1.10;;;15.40;1.00;;;;;;5113851;28;20874;-50
2023/10/11 06:22:28;;;;;;;2.30;1.00;;;15.20;1.00;;;;;;5112024;28;20436;-51
2023/10/11 06:24:58;;;;;;;5.28;1.20;;;15.10;99.90;;;;;;5113404;28;20479;-51
2023/10/11 06:30:11;;;;;;;6.25;1.30;;;14.90;94.80;;;;;;5111956;28;20419;-51
2023/10/11 06:32:38;;;;;;;1.90;0.90;;;14.70;1.00;;;;;;5108630;28;20496;-52
2023/10/11 06:35:07;;;;;;;2.45;1.20;;;14.70;99.90;;;;;;5115671;28;20419;-51
2023/10/11 06:37:36;;;;;;;3.22;1.15;;;14.70;99.90;;;;;;5114649;28;20428;-50
2023/10/11 06:40:14;;;;;;;5.35;1.27;;;14.70;1.00;;;;;;5113380;28;20432;-54
2023/10/11 06:42:41;;;;;;;2.90;0.90;;;14.90;99.90;;;;;;5111318;28;20442;-52
2023/10/11 06:45:16;;;;;;;2.50;1.02;;;15.00;99.90;;;;;;5111242;28;20439;-51
2023/10/11 06:47:47;;;;;;;3.40;1.00;;;15.10;99.90;;;;;;5111535;28;20460;-50
2023/10/11 06:50:16;;;;;;;3.25;1.00;;;15.20;1.00;;;;;;5110775;28;20999;-51
2023/10/11 06:52:45;;;;;;;2.35;1.00;;;15.20;1.00;;;;;;5110044;28;20443;-51
2023/10/11 06:55:18;;;;;;;4.40;1.10;;;15.40;1.00;;;;;;5114779;28;20720;-50
2023/10/11 06:57:50;;;;;;;3.13;1.00;;;15.50;99.90;;;;;;5112061;28;20438;-66
2023/10/11 07:00:24;;;;;;;3.30;1.08;;;15.50;1.00;;;;;;5112199;28;20466;-69
2023/10/11 07:02:53;;;;;;;1.75;0.90;;;15.60;1.00;;;;;;5112666;27;20470;-69
2023/10/11 07:05:25;;;;;;;2.95;1.00;;;15.60;1.00;;;;;;5113690;28;20432;-69
2023/10/11 07:07:53;;;;;;;3.22;1.10;;;15.70;1.00;;;;;;5111901;28;20438;-68
2023/10/11 07:10:29;;;;;;;2.78;0.90;;;15.80;99.90;;;;;;5112047;28;20481;-70
2023/10/11 07:13:04;;;;;;;4.55;1.05;;;15.70;99.90;;;;;;5110871;28;20468;-68
2023/10/11 07:15:40;;;;;;;3.50;1.00;;;15.80;99.90;;;;;;5107416;28;20453;-67
2023/10/11 07:18:10;;;;;;;4.03;1.20;;;15.90;41.60;;;;;;5112722;28;20435;-68
2023/10/11 07:20:58;;;;;;;3.70;1.20;;;16.00;68.60;;;;;;5107666;28;20701;-59
2023/10/11 07:23:34;;;;;;;2.07;0.90;;;16.10;1.00;;;;;;5106550;28;20435;-60
2023/10/11 07:26:23;;;;;;;2.45;0.90;;;16.20;99.90;;;;;;5109791;28;20923;-61
2023/10/11 07:28:50;;;;;;;3.95;0.90;;;16.30;99.90;;;;;;5100664;28;20857;-60
2023/10/11 07:31:18;;;;;;;4.15;1.20;;;16.30;99.90;;;;;;5111504;28;20428;-61
2023/10/11 07:33:49;;;;;;;3.08;1.20;;;16.40;99.90;;;;;;5104539;28;20432;-61
2023/10/11 07:36:18;;;;;;;4.13;1.30;;;16.50;99.90;;;;;;5105886;28;20451;-62
2023/10/11 07:38:54;;;;;;;4.93;1.10;;;16.60;99.90;;;;;;5110144;28;20752;-61
2023/10/11 07:41:23;;;;;;;2.40;1.00;;;16.70;99.90;;;;;;5108998;28;20990;-61
2023/10/11 07:43:50;;;;;;;2.40;1.00;;;16.90;1.00;;;;;;5109280;28;20454;-61
2023/10/11 07:46:19;;;;;;;3.17;1.00;;;17.00;1.00;;;;;;5111452;28;20451;-61
2023/10/11 07:48:47;;;;;;;2.97;1.20;;;17.10;1.00;;;;;;5113073;28;20439;-62
2023/10/11 07:51:15;;;;;;;3.53;0.90;;;17.20;1.00;;;;;;5110476;28;20897;-61
2023/10/11 07:53:44;;;;;;;2.73;0.90;;;17.30;1.00;;;;;;5111276;28;20458;-60
2023/10/11 07:56:15;;;;;;;3.83;1.20;;;17.30;1.00;;;;;;5110745;28;20423;-62
2023/10/11 07:58:46;;;;;;;2.08;1.08;;;17.30;1.00;;;;;;5108403;28;20586;-62
2023/10/11 08:01:24;;;;;;;3.00;1.10;;;17.40;1.00;;;;;;5109480;28;20471;-62
2023/10/11 08:03:53;;;;;;;2.70;0.90;;;17.50;1.00;;;;;;5095192;28;20519;-62
2023/10/11 08:06:24;;;;;;;4.70;0.90;;;17.50;1.00;;;;;;5113605;28;20420;-62
2023/10/11 08:08:59;;;;;;;2.30;1.00;;;17.60;1.00;;;;;;5108286;27;20432;-62
2023/10/11 08:11:28;;;;;;;1.60;0.80;;;17.60;1.00;;;;;;5112456;28;20503;-62
2023/10/11 08:14:00;;;;;;;3.90;0.80;;;17.70;99.90;;;;;;5109283;27;20459;-62
2023/10/11 08:16:34;;;;;;;3.70;0.80;;;17.80;99.90;;;;;;5107839;28;20435;-62
2023/10/11 08:19:01;;;;;;;2.30;0.80;;;17.90;99.90;;;;;;5111023;28;20443;-62
2023/10/11 08:21:30;;;;;;;3.90;0.80;;;18.00;99.90;;;;;;5109228;28;20450;-62
2023/10/11 08:24:01;;;;;;;2.30;0.80;;;18.20;99.90;;;;;;5105243;28;20459;-60
2023/10/11 08:26:32;;;;;;;2.70;0.95;;;18.40;99.90;;;;;;5111637;28;20416;-60
2023/10/11 08:29:14;;;;;;;4.43;1.00;;;18.50;99.90;;;;;;5110885;28;20445;-60
2023/10/11 08:31:44;;;;;;;2.60;0.77;;;18.60;99.90;;;;;;5105270;28;20455;-60
2023/10/11 08:34:14;;;;;;;2.40;1.30;;;18.70;99.90;;;;;;5107996;28;20532;-61
2023/10/11 08:36:44;;;;;;;3.67;1.40;;;18.80;99.90;;;;;;5109313;28;20436;-62
2023/10/11 08:39:14;;;;;;;4.70;1.10;;;18.90;99.90;;;;;;5109458;28;20428;-62
2023/10/11 08:41:43;;;;;;;7.20;1.17;;;19.00;99.90;;;;;;5109943;28;20412;-61
2023/10/11 08:44:20;;;;;;;3.22;1.02;;;19.10;99.90;;;;;;5108373;28;20761;-62
2023/10/11 08:46:50;;;;;;;1.83;1.00;;;19.10;99.30;;;;;;5108606;28;20436;-61
2023/10/11 08:49:18;;;;;;;4.77;1.00;;;19.20;77.40;;;;;;5106208;28;20964;-65
2023/10/11 08:51:52;;;;;;;2.00;0.80;;;19.20;32.00;;;;;;5104404;28;20444;-64
2023/10/11 08:54:26;;;;;;;3.20;0.90;;;19.30;27.90;;;;;;5112134;28;20431;-65
2023/10/11 08:56:54;;;;;;;3.13;1.05;;;19.30;24.40;;;;;;5100657;28;20436;-64
2023/10/11 08:59:25;;;;;;;5.00;1.10;;;19.40;18.10;;;;;;5112160;28;20870;-64
2023/10/11 09:01:59;;;;;;;3.97;0.90;;;19.50;10.50;;;;;;5111196;28;20429;-64
2023/10/11 09:04:28;;;;;;;5.35;1.20;;;19.50;1.00;;;;;;5099120;28;20438;-64
2023/10/11 09:06:57;;;;;;;1.30;0.70;;;19.70;1.00;;;;;;5101281;28;20681;-65
2023/10/11 09:09:39;;;;;;;2.00;0.70;;;19.80;1.00;;;;;;5110388;28;20734;-65
2023/10/11 09:14:58;;;;;;;3.30;0.80;;;20.20;1.00;;;;;;5112785;27;20627;-64
2023/10/11 09:17:26;;;;;;;2.30;0.80;;;20.40;1.00;;;;;;5112190;28;20727;-64
2023/10/11 09:19:56;;;;;;;4.90;0.80;;;20.40;1.00;;;;;;5111409;27;20488;-64
2023/10/11 09:22:24;;;;;;;2.60;0.70;;;20.50;1.00;;;;;;5112734;28;20448;-64
2023/10/11 09:25:07;;;;;;;3.47;0.70;;;20.60;1.00;;;;;;5110762;28;20436;-64
2023/10/11 09:27:50;;;;;;;1.60;0.70;;;20.90;1.00;;;;;;5112017;28;20446;-64
2023/10/11 09:30:20;;;;;;;2.10;0.70;;;21.20;1.00;;;;;;5112886;28;20428;-64
2023/10/11 09:32:51;;;;;;;3.10;0.68;;;21.40;1.00;;;;;;5114144;28;20436;-64
2023/10/11 09:35:26;;;;;;;1.60;0.60;;;21.50;1.00;;;;;;5113847;28;20477;-64
2023/10/11 09:37:54;;;;;;;2.38;0.60;;;21.60;1.00;;;;;;5113664;27;20436;-65
2023/10/11 09:40:28;;;;;;;2.20;0.60;;;21.60;1.00;;;;;;5109056;28;20460;-64
2023/10/11 09:43:00;;;;;;;1.60;0.70;;;21.70;1.00;;;;;;5095213;28;20428;-64
2023/10/11 09:45:42;;;;;;;1.80;0.70;;;21.80;1.00;;;;;;5114884;27;20924;-64
2023/10/11 09:48:17;;;;;;;1.20;0.60;;;21.90;1.00;;;;;;5112939;28;20416;-65
2023/10/11 09:50:44;;;;;;;1.33;0.57;;;22.10;1.00;;;;;;5109901;28;20467;-65
2023/10/11 09:53:13;;;;;;;2.45;0.70;;;22.30;1.00;;;;;;5113480;28;20750;-64
2023/10/11 09:55:48;;;;;;;1.83;0.60;;;22.50;1.00;;;;;;5110040;27;20888;-65
2023/10/11 09:58:28;;;;;;;2.10;0.65;;;22.70;1.00;;;;;;5110716;28;20439;-64
2023/10/11 10:01:08;;;;;;;2.33;0.68;;;22.80;1.00;;;;;;5093914;28;20430;-64
2023/10/11 10:03:38;;;;;;;2.15;0.70;;;22.80;1.00;;;;;;5101091;28;20476;-64
2023/10/11 10:06:11;;;;;;;1.70;0.60;;;22.90;1.00;;;;;;5112362;27;20431;-64
2023/10/11 10:08:38;;;;;;;2.40;0.70;;;23.00;1.00;;;;;;5107980;28;20722;-61
2023/10/11 10:11:12;;;;;;;1.90;0.60;;;23.20;1.00;;;;;;5112214;27;20432;-62
2023/10/11 10:14:23;;;;;;;2.30;0.70;;;23.40;1.00;;;;;;5108366;28;20446;-61
2023/10/11 10:17:13;;;;;;;2.00;0.70;;;23.50;1.00;;;;;;5101655;28;20432;-62
2023/10/11 10:19:42;;;;;;;3.70;0.70;;;23.70;1.00;;;;;;5111303;27;20436;-62
2023/10/11 10:22:14;;;;;;;2.30;0.60;;;23.90;1.00;;;;;;5109607;28;20450;-62
2023/10/11 10:24:43;;;;;;;3.88;0.60;;;24.10;1.00;;;;;;5109326;28;20575;-62
2023/10/11 10:27:45;;;;;;;2.00;0.80;;;24.20;1.00;;;;;;5110972;28;20439;-69
2023/10/11 10:30:21;;;;;;;2.88;0.88;;;24.30;1.00;;;;;;5097096;28;20734;-66
2023/10/11 10:33:18;;;;;;;1.30;0.60;;;24.30;1.00;;;;;;5110441;28;20443;-66
2023/10/11 10:35:45;;;;;;;1.70;0.75;;;24.40;1.00;;;;;;5111308;28;20458;-67
2023/10/11 10:38:15;;;;;;;1.38;0.60;;;24.50;1.00;;;;;;5113291;28;20485;-67
2023/10/11 10:40:45;;;;;;;2.80;0.80;;;24.60;1.00;;;;;;5108465;27;20539;-60
2023/10/11 10:43:27;;;;;;;2.80;0.60;;;24.80;1.00;;;;;;5109727;28;20517;-61
2023/10/11 10:45:59;;;;;;;1.90;0.60;;;24.90;1.00;;;;;;5108124;27;20435;-59
2023/10/11 10:48:39;;;;;;;3.20;0.70;;;25.00;1.00;;;;;;5096212;28;20853;-60
2023/10/11 10:51:11;;;;;;;1.45;0.60;;;25.20;1.00;;;;;;5096590;28;20528;-59
2023/10/11 10:53:38;;;;;;;3.20;0.60;;;25.20;1.00;;;;;;5105721;27;20801;-61
2023/10/11 10:56:06;;;;;;;4.07;0.70;;;25.30;1.00;;;;;;5111871;28;20435;-61
2023/10/11 10:58:32;;;;;;;2.50;0.60;;;25.50;1.00;;;;;;5104526;28;20534;-62
2023/10/11 11:01:00;;;;;;;2.00;0.70;;;25.60;1.00;;;;;;5109345;28;20443;-61
2023/10/11 11:03:31;;;;;;;1.77;0.80;;;25.70;1.00;;;;;;5108283;28;21006;-61
2023/10/11 11:06:01;;;;;;;1.97;0.60;;;25.80;1.00;;;;;;5097385;28;20864;-63
2023/10/11 11:08:28;;;;;;;3.00;0.90;;;26.00;1.00;;;;;;5094705;28;20465;-61
2023/10/11 11:11:18;;;;;;;1.10;0.70;;;26.00;1.00;;;;;;5101474;28;20431;-62
2023/10/11 11:13:47;;;;;;;2.00;0.70;;;26.10;1.00;;;;;;5102917;28;20734;-60
2023/10/11 11:16:21;;;;;;;2.30;0.60;;;26.20;1.00;;;;;;5110559;27;20432;-60
2023/10/11 11:18:48;;;;;;;0.90;0.57;;;26.10;1.00;;;;;;5112984;28;20501;-61
2023/10/11 11:21:20;;;;;;;1.50;0.60;;;26.20;1.00;;;;;;5110635;28;20436;-60
2023/10/11 11:23:50;;;;;;;1.70;0.60;;;26.20;1.00;;;;;;5104081;28;20424;-62
2023/10/11 11:26:17;;;;;;;1.90;0.60;;;26.10;1.00;;;;;;5108088;28;20768;-62
2023/10/11 11:28:46;;;;;;;1.90;0.60;;;26.30;1.00;;;;;;5109149;28;20801;-62
2023/10/11 11:31:30;;;;;;;1.17;0.60;;;26.30;1.00;;;;;;5107825;27;20428;-62
2023/10/11 11:34:14;;;;;;;1.58;0.60;;;26.40;1.00;;;;;;5109872;28;20424;-60
2023/10/11 11:36:43;;;;;;;2.90;0.60;;;26.30;1.00;;;;;;5109269;27;20568;-62
2023/10/11 11:39:26;;;;;;;2.60;0.70;;;26.30;1.00;;;;;;5112884;28;20420;-58
2023/10/11 11:41:57;;;;;;;3.15;1.00;;;26.50;1.00;;;;;;5100185;28;20532;-57
2023/10/11 11:44:24;;;;;;;1.00;0.65;;;26.60;1.00;;;;;;5111180;28;20428;-58
2023/10/11 11:46:53;;;;;;;1.90;0.60;;;26.80;1.00;;;;;;5110767;28;20486;-54
2023/10/11 11:49:22;;;;;;;1.90;0.70;;;26.90;1.00;;;;;;5110029;28;20793;-54
2023/10/11 11:51:52;;;;;;;1.80;0.50;;;26.70;1.00;;;;;;5104772;27;20751;-55
2023/10/11 11:54:23;;;;;;;1.25;0.60;;;26.70;1.00;;;;;;5128404;27;20884;-57
2023/10/11 11:56:55;;;;;;;2.97;0.60;;;26.70;1.00;;;;;;5115854;27;20446;-57
2023/10/11 11:59:23;;;;;;;2.10;0.50;;;26.60;1.00;;;;;;5119898;27;20431;-54
2023/10/11 12:01:53;;;;;;;2.30;0.60;;;26.60;1.00;;;;;;5114165;27;20528;-57
2023/10/11 12:04:29;;;;;;;1.20;0.60;;;26.70;1.00;;;;;;5111007;28;20949;-57
2023/10/11 12:06:58;;;;;;;2.17;0.60;;;26.70;1.00;;;;;;5106316;28;20554;-57
2023/10/11 12:09:31;;;;;;;1.50;0.60;;;26.60;1.00;;;;;;5105207;28;20424;-57
2023/10/11 12:12:04;;;;;;;2.00;0.60;;;26.60;1.00;;;;;;5107978;28;20419;-57
2023/10/11 12:14:31;;;;;;;3.78;0.70;;;26.60;1.00;;;;;;5108628;28;20789;-54
2023/10/11 12:17:00;;;;;;;1.20;0.70;;;26.60;1.00;;;;;;5108402;28;20439;-57
2023/10/11 12:19:32;;;;;;;2.00;0.68;;;26.60;1.00;;;;;;5109854;28;20432;-57
2023/10/11 12:22:04;;;;;;;2.72;0.70;;;26.60;1.00;;;;;;5109398;28;20427;-56
2023/10/11 12:24:32;;;;;;;2.20;0.60;;;26.50;1.00;;;;;;5110737;28;20485;-57
2023/10/11 12:27:02;;;;;;;2.20;0.70;;;26.50;1.00;;;;;;5111953;28;20546;-57
2023/10/11 12:29:29;;;;;;;1.70;0.80;;;26.50;1.00;;;;;;5112237;28;20468;-57
2023/10/11 12:32:01;;;;;;;2.00;0.80;;;26.50;1.00;;;;;;5109677;28;20477;-55
2023/10/11 12:34:30;;;;;;;1.70;0.60;;;26.20;1.00;;;;;;5109114;28;20741;-57
2023/10/11 12:37:02;;;;;;;2.63;0.50;;;26.30;1.00;;;;;;5111756;28;20551;-59
2023/10/11 12:39:33;;;;;;;5.10;2.70;;;26.30;1.00;;;;;;5100540;28;20508;-57
2023/10/11 12:42:02;;;;;;;1.57;0.80;;;26.30;1.00;;;;;;5111435;28;20790;-57
2023/10/11 12:44:30;;;;;;;1.40;0.60;;;26.40;1.00;;;;;;5114269;28;20428;-58
2023/10/11 12:47:00;;;;;;;1.40;0.50;;;26.50;1.00;;;;;;5115584;28;20428;-58
2023/10/11 12:49:29;;;;;;;2.28;0.60;;;26.60;1.00;;;;;;5113742;28;20488;-59
2023/10/11 12:51:56;;;;;;;0.80;0.50;;;26.70;1.00;;;;;;5115790;28;20455;-59
2023/10/11 12:54:23;;;;;;;1.27;0.47;;;26.80;1.00;;;;;;5115203;27;20439;-59
2023/10/11 12:56:50;;;;;;;1.17;0.50;;;26.90;1.00;;;;;;5111716;28;20416;-59
2023/10/11 12:59:22;;;;;;;1.52;0.50;;;26.80;1.00;;;;;;5113540;28;20435;-58
2023/10/11 13:01:52;;;;;;;1.00;0.50;;;26.80;1.00;;;;;;5114293;28;20423;-59
2023/10/11 13:04:23;;;;;;;1.40;0.50;;;26.70;1.00;;;;;;5115499;28;20423;-59
2023/10/11 13:06:52;;;;;;;1.25;0.50;;;26.60;1.00;;;;;;5114443;28;20437;-59
2023/10/11 13:09:27;;;;;;;1.55;0.60;;;26.70;1.00;;;;;;5115489;28;20424;-57
2023/10/11 13:11:56;;;;;;;1.55;0.68;;;26.60;1.00;;;;;;5116092;28;20448;-57
2023/10/11 13:14:24;;;;;;;1.00;0.60;;;26.50;1.00;;;;;;5114928;28;20676;-57
2023/10/11 13:16:53;;;;;;;1.60;0.60;;;26.50;1.00;;;;;;5115083;28;20423;-58
2023/10/11 13:19:24;;;;;;;1.80;0.57;;;26.40;1.00;;;;;;5116176;28;20436;-58
2023/10/11 13:21:54;;;;;;;1.60;0.50;;;26.50;1.00;;;;;;5114329;28;20527;-57
2023/10/11 13:24:22;;;;;;;1.70;0.50;;;26.50;1.00;;;;;;5114388;28;20412;-57
2023/10/11 13:26:51;;;;;;;1.98;0.60;;;26.50;1.00;;;;;;5114444;28;20416;-57
2023/10/11 13:29:18;;;;;;;1.90;0.70;;;26.50;1.00;;;;;;5114842;28;20424;-56
2023/10/11 13:31:47;;;;;;;0.90;0.50;;;26.40;1.00;;;;;;5114458;28;20930;-56
2023/10/11 13:34:15;;;;;;;1.90;0.60;;;26.40;1.00;;;;;;5114326;28;20427;-56
2023/10/11 13:36:43;;;;;;;1.00;0.50;;;26.30;1.00;;;;;;5114776;28;20420;-56
2023/10/11 13:39:25;;;;;;;0.90;0.50;;;26.30;1.00;;;;;;5114523;28;20511;-56